createdAt,value
2022-09-23T00:03:26.254Z,79.3
2022-09-23T00:08:26.292Z,79.3
2022-09-23T00:13:26.081Z,79.3
2022-09-23T00:18:26.056Z,79.3
2022-09-23T00:23:26.232Z,79.4
2022-09-23T00:28:26.027Z,79.4
2022-09-23T00:33:25.851Z,79.4
2022-09-23T00:38:26.213Z,79.5
2022-09-23T00:43:26.173Z,79.5
2022-09-23T00:48:26.289Z,79.5
2022-09-23T00:53:25.830Z,79.5
2022-09-23T00:58:25.857Z,79.3
2022-09-23T01:03:26.348Z,79.6
2022-09-23T01:08:26.828Z,79.6
2022-09-23T01:13:25.789Z,79.6
2022-09-23T01:18:25.822Z,79.6
2022-09-23T01:23:25.952Z,79.6
2022-09-23T01:28:25.861Z,79.7
2022-09-23T01:33:26.382Z,79.7
2022-09-23T01:38:25.787Z,79.7
2022-09-23T01:43:25.798Z,79.8
2022-09-23T01:48:25.987Z,79.7
2022-09-23T01:53:25.723Z,79.7
2022-09-23T01:58:26.286Z,79.7
2022-09-23T02:03:25.878Z,79.7
2022-09-23T02:08:25.850Z,79.7
2022-09-23T02:13:25.701Z,79.8
2022-09-23T02:18:25.723Z,79.9
2022-09-23T02:23:26.138Z,79.8
2022-09-23T02:28:25.647Z,79.8
2022-09-23T02:33:26.072Z,79.8
2022-09-23T02:38:26.331Z,79.8
2022-09-23T02:43:25.742Z,79.8
2022-09-23T02:48:25.681Z,79.8
2022-09-23T02:53:25.958Z,79.8
2022-09-23T02:58:25.776Z,80.0
2022-09-23T03:03:26.498Z,80.0
2022-09-23T03:08:25.712Z,80.0
2022-09-23T03:13:29.260Z,80.0
2022-09-23T03:18:25.805Z,80.0
2022-09-23T03:23:25.796Z,79.9
2022-09-23T03:28:25.558Z,80.0
2022-09-23T03:33:28.660Z,79.9
2022-09-23T03:38:25.636Z,80.0
2022-09-23T03:43:25.715Z,80.0
2022-09-23T03:48:25.728Z,79.9
2022-09-23T03:53:25.977Z,79.7
2022-09-23T03:58:25.611Z,79.7
2022-09-23T04:03:25.676Z,79.7
2022-09-23T04:08:25.499Z,79.8
2022-09-23T04:13:25.636Z,79.9
2022-09-23T04:18:25.746Z,79.9
2022-09-23T04:23:25.534Z,79.9
2022-09-23T04:28:25.614Z,80.0
2022-09-23T04:33:25.759Z,79.7
2022-09-23T04:38:25.557Z,79.6
2022-09-23T04:43:25.613Z,79.8
2022-09-23T04:48:26.061Z,79.9
2022-09-23T04:53:25.512Z,80.0
2022-09-23T04:58:25.610Z,80.0
2022-09-23T05:03:26.185Z,79.9
2022-09-23T05:08:25.565Z,79.9
2022-09-23T05:13:26.233Z,80.0
2022-09-23T05:18:25.971Z,80.1
2022-09-23T05:23:25.994Z,80.3
2022-09-23T05:28:25.392Z,80.4
2022-09-23T05:33:25.511Z,80.4
2022-09-23T05:38:25.940Z,80.5
2022-09-23T05:43:25.476Z,80.6
2022-09-23T05:48:25.596Z,80.6
2022-09-23T05:53:25.479Z,80.6
2022-09-23T05:58:25.498Z,80.7
2022-09-23T06:03:25.948Z,80.7
2022-09-23T06:08:25.343Z,80.8
2022-09-23T06:13:25.346Z,80.8
2022-09-23T06:18:25.451Z,80.9
2022-09-23T06:23:26.672Z,80.8
2022-09-23T06:28:25.724Z,80.8
2022-09-23T06:33:32.797Z,80.8
2022-09-23T06:38:25.336Z,80.8
2022-09-23T06:43:25.400Z,80.9
2022-09-23T06:48:25.421Z,81.1
2022-09-23T06:53:25.848Z,81.1
2022-09-23T06:58:25.366Z,81.0
2022-09-23T07:03:25.280Z,81.1
2022-09-23T07:08:25.344Z,80.9
2022-09-23T07:13:25.423Z,81.0
2022-09-23T07:18:25.898Z,80.9
2022-09-23T07:23:25.259Z,80.8
2022-09-23T07:28:25.320Z,80.8
2022-09-23T07:33:32.133Z,80.9
2022-09-23T07:38:25.335Z,80.9
2022-09-23T07:43:25.590Z,80.8
2022-09-23T07:48:25.351Z,80.9
2022-09-23T07:53:25.300Z,80.8
2022-09-23T07:58:25.211Z,80.8
2022-09-23T08:03:25.562Z,80.8
2022-09-23T08:08:25.164Z,80.7
2022-09-23T08:13:25.303Z,80.7
2022-09-23T08:18:25.440Z,80.2
2022-09-23T08:23:25.095Z,80.4
2022-09-23T08:28:25.312Z,80.3
2022-09-23T08:33:26.057Z,80.2
2022-09-23T08:38:25.179Z,80.1
2022-09-23T08:43:25.010Z,80.1
2022-09-23T08:48:25.452Z,80.2
2022-09-23T08:53:25.084Z,80.3
2022-09-23T08:58:26.193Z,80.1
2022-09-23T09:03:25.192Z,79.7
2022-09-23T09:08:25.046Z,79.6
2022-09-23T09:13:25.071Z,79.5
2022-09-23T09:23:25.009Z,79.4
2022-09-23T09:28:25.118Z,79.1
2022-09-23T09:33:25.783Z,79.1
2022-09-23T09:38:25.022Z,79.0
2022-09-23T09:43:25.141Z,78.7
2022-09-23T09:48:25.499Z,78.7
2022-09-23T09:53:24.989Z,78.7
2022-09-23T09:58:25.161Z,78.3
2022-09-23T10:03:25.108Z,77.8
2022-09-23T10:08:24.932Z,77.6
2022-09-23T10:13:24.939Z,77.8
2022-09-23T10:18:25.531Z,77.4
2022-09-23T10:23:24.881Z,77.1
2022-09-23T10:28:25.078Z,77.0
2022-09-23T10:33:25.080Z,77.1
2022-09-23T10:38:25.005Z,77.1
2022-09-23T10:43:25.247Z,76.9
2022-09-23T10:48:25.217Z,76.4
2022-09-23T10:53:24.977Z,76.0
2022-09-23T10:58:24.941Z,75.8
2022-09-23T11:03:25.142Z,75.6
2022-09-23T11:08:25.319Z,75.3
2022-09-23T11:13:25.011Z,75.4
2022-09-23T11:18:25.031Z,75.3
2022-09-23T11:23:24.794Z,75.5
2022-09-23T11:28:24.929Z,75.5
2022-09-23T11:33:25.228Z,75.1
2022-09-23T11:38:25.037Z,74.3
2022-09-23T11:43:24.663Z,74.0
2022-09-23T11:48:25.029Z,74.0
2022-09-23T11:53:24.815Z,73.3
2022-09-23T11:58:26.066Z,72.8
2022-09-23T12:03:34.824Z,72.7
2022-09-23T12:08:24.736Z,72.4
2022-09-23T12:13:24.703Z,72.4
2022-09-23T12:18:24.967Z,72.3
2022-09-23T12:23:24.740Z,72.0
2022-09-23T12:28:24.789Z,71.9
2022-09-23T12:33:25.164Z,72.0
2022-09-23T12:38:24.781Z,71.5
2022-09-23T12:43:24.650Z,71.5
2022-09-23T12:48:24.923Z,71.0
2022-09-23T12:53:24.660Z,70.2
2022-09-23T12:58:24.951Z,70.8
2022-09-23T13:03:24.968Z,70.5
2022-09-23T13:08:24.753Z,70.3
2022-09-23T13:13:25.134Z,69.9
2022-09-23T13:18:24.899Z,69.9
2022-09-23T13:23:24.637Z,69.4
2022-09-23T13:28:24.713Z,69.3
2022-09-23T13:38:26.692Z,68.9
2022-09-23T13:43:24.742Z,68.4
2022-09-23T13:48:24.780Z,68.2
2022-09-23T13:53:24.665Z,67.8
2022-09-23T13:58:32.796Z,67.8
2022-09-23T14:03:24.810Z,67.5
2022-09-23T14:08:28.276Z,67.4
2022-09-23T14:13:25.881Z,67.3
2022-09-23T14:18:24.612Z,67.4
2022-09-23T14:23:25.224Z,67.6
2022-09-23T14:28:24.560Z,67.8
2022-09-23T14:33:24.545Z,67.9
2022-09-23T14:38:24.773Z,67.8
2022-09-23T14:43:24.773Z,67.6
2022-09-23T14:48:24.529Z,67.6
2022-09-23T14:53:24.506Z,67.4
2022-09-23T14:58:25.014Z,67.4
2022-09-23T15:03:25.322Z,67.4
2022-09-23T15:08:24.469Z,67.2
2022-09-23T15:13:24.750Z,67.1
2022-09-23T15:18:24.577Z,66.9
2022-09-23T15:23:27.747Z,66.9
2022-09-23T15:28:24.666Z,66.6
2022-09-23T15:33:25.326Z,66.4
2022-09-23T15:38:24.443Z,66.3
2022-09-23T15:43:24.446Z,66.2
2022-09-23T15:48:24.604Z,66.3
2022-09-23T15:53:24.641Z,66.3
2022-09-23T15:58:24.719Z,66.3
2022-09-23T16:03:24.447Z,66.4
2022-09-23T16:08:24.427Z,66.4
2022-09-23T16:13:24.571Z,66.5
2022-09-23T16:18:24.293Z,66.5
2022-09-23T16:23:24.406Z,66.5
2022-09-23T16:28:24.559Z,66.6
2022-09-23T16:33:24.431Z,66.7
2022-09-23T16:38:24.925Z,66.8
2022-09-23T16:43:24.410Z,66.9
2022-09-23T16:48:24.303Z,67.0
2022-09-23T16:53:24.278Z,67.0
2022-09-23T16:58:24.449Z,67.1
2022-09-23T17:03:24.314Z,67.1
2022-09-23T17:08:24.263Z,67.2
2022-09-23T17:13:24.637Z,67.3
2022-09-23T17:18:24.322Z,67.4
2022-09-23T17:23:24.586Z,67.5
2022-09-23T17:28:24.685Z,67.6
2022-09-23T17:33:24.239Z,67.7
2022-09-23T17:38:28.874Z,67.7
2022-09-23T17:43:24.366Z,67.9
2022-09-23T17:48:24.195Z,68.1
2022-09-23T17:53:24.165Z,68.3
2022-09-23T17:58:24.468Z,68.3
2022-09-23T18:03:24.324Z,68.4
2022-09-23T18:08:24.296Z,68.4
2022-09-23T18:13:24.390Z,68.5
2022-09-23T18:18:24.333Z,68.6
2022-09-23T18:23:26.171Z,68.5
2022-09-23T18:28:24.293Z,68.8
2022-09-23T18:33:24.992Z,69.0
2022-09-23T18:38:24.517Z,68.9
2022-09-23T18:43:42.269Z,69.1
2022-09-23T18:48:37.598Z,69.2
2022-09-23T18:53:37.222Z,69.3
2022-09-23T18:58:37.432Z,69.4
2022-09-23T19:03:37.266Z,69.6
2022-09-23T20:58:34.167Z,69.8
2022-09-23T21:03:33.679Z,71.6
2022-09-23T21:08:33.862Z,71.6
2022-09-23T21:13:33.779Z,71.9
2022-09-23T21:18:33.749Z,72.0
2022-09-23T21:23:33.958Z,72.1
2022-09-23T21:28:33.703Z,72.0
2022-09-23T21:33:56.645Z,72.1
2022-09-23T21:38:34.014Z,72.0
2022-09-23T21:43:33.609Z,72.2
2022-09-23T21:48:33.618Z,72.2
2022-09-23T21:53:33.854Z,72.4
2022-09-23T21:58:33.744Z,72.6
2022-09-23T22:03:33.643Z,72.7
2022-09-23T22:08:33.981Z,72.8
2022-09-23T22:13:33.671Z,73.1
2022-09-23T22:18:33.559Z,73.1
2022-09-23T22:23:33.890Z,73.2
2022-09-23T22:28:33.580Z,73.2
2022-09-23T22:33:33.774Z,73.3
2022-09-23T22:38:33.839Z,73.4
2022-09-23T22:43:33.548Z,73.4
2022-09-23T22:48:33.573Z,73.4
2022-09-23T22:53:34.192Z,73.4
2022-09-23T22:58:33.762Z,73.5
2022-09-23T23:03:33.715Z,73.5
2022-09-23T23:08:33.677Z,73.6
2022-09-23T23:13:34.391Z,73.6
2022-09-23T23:18:33.429Z,73.8
2022-09-23T23:23:33.624Z,73.8
2022-09-23T23:28:34.251Z,73.8
2022-09-23T23:33:33.865Z,74.0
2022-09-23T23:38:33.743Z,74.0
2022-09-23T23:43:33.553Z,74.0
2022-09-23T23:48:33.599Z,74.1
2022-09-23T23:53:33.529Z,74.2
2022-09-23T23:58:33.449Z,74.3
